sensor_id;sensor_type;location;lat;lon;timestamp;P1;durP1;ratioP1;P2;durP2;ratioP2
2053;SDS011;1032;52.542;13.440;2023-06-22T00:01:11;15.80;;;14.20;;
2053;SDS011;1032;52.542;13.440;2023-06-22T00:03:38;13.90;;;12.70;;
2053;SDS011;1032;52.542;13.440;2023-06-22T00:06:05;14.37;;;12.90;;
2053;SDS011;1032;52.542;13.440;2023-06-22T00:08:31;14.43;;;13.23;;
2053;SDS011;1032;52.542;13.440;2023-06-22T00:10:59;15.47;;;13.97;;
2053;SDS011;1032;52.542;13.440;2023-06-22T00:13:26;14.47;;;12.93;;
2053;SDS011;1032;52.542;13.440;2023-06-22T00:15:52;15.60;;;14.27;;
2053;SDS011;1032;52.542;13.440;2023-06-22T00:18:19;14.50;;;13.30;;
2053;SDS011;1032;52.542;13.440;2023-06-22T00:20:46;15.60;;;14.20;;
2053;SDS011;1032;52.542;13.440;2023-06-22T00:23:12;15.03;;;13.77;;
2053;SDS011;1032;52.542;13.440;2023-06-22T00:25:40;14.47;;;13.07;;
2053;SDS011;1032;52.542;13.440;2023-06-22T00:28:08;15.73;;;14.27;;
2053;SDS011;1032;52.542;13.440;2023-06-22T00:30:35;15.67;;;14.23;;
2053;SDS011;1032;52.542;13.440;2023-06-22T00:33:02;16.03;;;14.47;;
2053;SDS011;1032;52.542;13.440;2023-06-22T00:35:32;15.60;;;14.23;;
2053;SDS011;1032;52.542;13.440;2023-06-22T00:38:00;15.97;;;14.60;;
2053;SDS011;1032;52.542;13.440;2023-06-22T00:40:29;16.07;;;14.67;;
2053;SDS011;1032;52.542;13.440;2023-06-22T00:42:56;15.80;;;14.50;;
2053;SDS011;1032;52.542;13.440;2023-06-22T00:45:25;16.87;;;15.23;;
2053;SDS011;1032;52.542;13.440;2023-06-22T00:47:53;13.97;;;12.67;;
2053;SDS011;1032;52.542;13.440;2023-06-22T00:50:22;16.13;;;14.43;;
2053;SDS011;1032;52.542;13.440;2023-06-22T00:52:51;15.20;;;13.90;;
2053;SDS011;1032;52.542;13.440;2023-06-22T00:55:18;15.47;;;13.87;;
2053;SDS011;1032;52.542;13.440;2023-06-22T00:57:46;15.97;;;14.50;;
2053;SDS011;1032;52.542;13.440;2023-06-22T01:00:14;17.03;;;13.20;;
2053;SDS011;1032;52.542;13.440;2023-06-22T01:02:46;14.90;;;13.60;;
2053;SDS011;1032;52.542;13.440;2023-06-22T01:05:17;16.20;;;14.70;;
2053;SDS011;1032;52.542;13.440;2023-06-22T01:07:47;16.57;;;15.00;;
2053;SDS011;1032;52.542;13.440;2023-06-22T01:10:27;14.20;;;13.00;;
2053;SDS011;1032;52.542;13.440;2023-06-22T01:13:01;15.60;;;14.07;;
2053;SDS011;1032;52.542;13.440;2023-06-22T01:15:31;14.47;;;12.97;;
2053;SDS011;1032;52.542;13.440;2023-06-22T01:18:06;16.33;;;14.73;;
2053;SDS011;1032;52.542;13.440;2023-06-22T01:20:35;15.80;;;14.33;;
2053;SDS011;1032;52.542;13.440;2023-06-22T01:23:07;17.23;;;15.53;;
2053;SDS011;1032;52.542;13.440;2023-06-22T01:25:43;16.27;;;14.73;;
2053;SDS011;1032;52.542;13.440;2023-06-22T01:28:19;18.17;;;16.57;;
2053;SDS011;1032;52.542;13.440;2023-06-22T01:30:53;16.03;;;14.50;;
2053;SDS011;1032;52.542;13.440;2023-06-22T01:33:29;18.20;;;16.70;;
2053;SDS011;1032;52.542;13.440;2023-06-22T01:35:59;17.23;;;15.43;;
2053;SDS011;1032;52.542;13.440;2023-06-22T01:38:29;18.23;;;16.53;;
2053;SDS011;1032;52.542;13.440;2023-06-22T01:40:59;16.93;;;15.43;;
2053;SDS011;1032;52.542;13.440;2023-06-22T01:43:27;16.40;;;14.90;;
2053;SDS011;1032;52.542;13.440;2023-06-22T01:45:56;17.87;;;16.30;;
2053;SDS011;1032;52.542;13.440;2023-06-22T01:48:26;18.33;;;16.73;;
2053;SDS011;1032;52.542;13.440;2023-06-22T01:50:54;18.53;;;16.93;;
2053;SDS011;1032;52.542;13.440;2023-06-22T01:53:21;16.37;;;14.97;;
2053;SDS011;1032;52.542;13.440;2023-06-22T01:55:50;18.17;;;16.57;;
2053;SDS011;1032;52.542;13.440;2023-06-22T01:58:17;18.60;;;16.90;;
2053;SDS011;1032;52.542;13.440;2023-06-22T02:00:48;18.77;;;16.80;;
2053;SDS011;1032;52.542;13.440;2023-06-22T02:03:19;17.83;;;16.20;;
2053;SDS011;1032;52.542;13.440;2023-06-22T02:05:52;17.27;;;15.57;;
2053;SDS011;1032;52.542;13.440;2023-06-22T02:08:25;17.80;;;16.30;;
2053;SDS011;1032;52.542;13.440;2023-06-22T02:10:54;17.90;;;16.20;;
2053;SDS011;1032;52.542;13.440;2023-06-22T02:13:24;17.87;;;16.20;;
2053;SDS011;1032;52.542;13.440;2023-06-22T02:15:51;17.43;;;15.83;;
2053;SDS011;1032;52.542;13.440;2023-06-22T02:18:19;17.80;;;16.30;;
2053;SDS011;1032;52.542;13.440;2023-06-22T02:20:45;17.60;;;16.00;;
2053;SDS011;1032;52.542;13.440;2023-06-22T02:23:12;17.00;;;15.50;;
2053;SDS011;1032;52.542;13.440;2023-06-22T02:25:39;17.83;;;16.23;;
2053;SDS011;1032;52.542;13.440;2023-06-22T02:28:09;16.77;;;15.37;;
2053;SDS011;1032;52.542;13.440;2023-06-22T02:30:36;18.33;;;16.70;;
2053;SDS011;1032;52.542;13.440;2023-06-22T02:33:06;17.83;;;16.13;;
2053;SDS011;1032;52.542;13.440;2023-06-22T02:35:34;17.20;;;15.67;;
2053;SDS011;1032;52.542;13.440;2023-06-22T02:38:01;18.57;;;16.80;;
2053;SDS011;1032;52.542;13.440;2023-06-22T02:40:29;19.10;;;17.40;;
2053;SDS011;1032;52.542;13.440;2023-06-22T02:42:57;18.30;;;16.60;;
2053;SDS011;1032;52.542;13.440;2023-06-22T02:45:27;18.13;;;16.43;;
2053;SDS011;1032;52.542;13.440;2023-06-22T02:47:53;19.10;;;17.27;;
2053;SDS011;1032;52.542;13.440;2023-06-22T02:50:20;18.33;;;16.43;;
2053;SDS011;1032;52.542;13.440;2023-06-22T02:52:49;19.63;;;17.63;;
2053;SDS011;1032;52.542;13.440;2023-06-22T02:55:16;18.80;;;17.00;;
2053;SDS011;1032;52.542;13.440;2023-06-22T02:57:49;18.27;;;16.63;;
2053;SDS011;1032;52.542;13.440;2023-06-22T03:00:17;17.73;;;16.23;;
2053;SDS011;1032;52.542;13.440;2023-06-22T03:02:47;19.33;;;17.37;;
2053;SDS011;1032;52.542;13.440;2023-06-22T03:05:15;16.90;;;15.43;;
2053;SDS011;1032;52.542;13.440;2023-06-22T03:07:43;19.10;;;17.50;;
2053;SDS011;1032;52.542;13.440;2023-06-22T03:10:12;17.93;;;16.30;;
2053;SDS011;1032;52.542;13.440;2023-06-22T03:12:40;18.43;;;16.53;;
2053;SDS011;1032;52.542;13.440;2023-06-22T03:15:08;17.90;;;16.10;;
2053;SDS011;1032;52.542;13.440;2023-06-22T03:17:36;16.80;;;15.30;;
2053;SDS011;1032;52.542;13.440;2023-06-22T03:20:04;20.20;;;16.67;;
2053;SDS011;1032;52.542;13.440;2023-06-22T03:22:34;18.20;;;16.40;;
2053;SDS011;1032;52.542;13.440;2023-06-22T03:25:01;17.30;;;15.73;;
2053;SDS011;1032;52.542;13.440;2023-06-22T03:27:29;17.60;;;16.00;;
2053;SDS011;1032;52.542;13.440;2023-06-22T03:29:56;15.97;;;14.57;;
2053;SDS011;1032;52.542;13.440;2023-06-22T03:32:23;16.63;;;15.20;;
2053;SDS011;1032;52.542;13.440;2023-06-22T03:34:50;16.40;;;14.97;;
2053;SDS011;1032;52.542;13.440;2023-06-22T03:37:17;15.37;;;14.07;;
2053;SDS011;1032;52.542;13.440;2023-06-22T03:39:44;17.90;;;14.37;;
2053;SDS011;1032;52.542;13.440;2023-06-22T03:42:11;15.33;;;13.97;;
2053;SDS011;1032;52.542;13.440;2023-06-22T03:44:40;15.50;;;14.17;;
2053;SDS011;1032;52.542;13.440;2023-06-22T03:47:06;13.93;;;12.73;;
2053;SDS011;1032;52.542;13.440;2023-06-22T03:49:35;14.87;;;13.47;;
2053;SDS011;1032;52.542;13.440;2023-06-22T03:52:01;15.13;;;13.63;;
2053;SDS011;1032;52.542;13.440;2023-06-22T03:54:29;14.63;;;13.13;;
2053;SDS011;1032;52.542;13.440;2023-06-22T03:56:56;14.20;;;13.00;;
2053;SDS011;1032;52.542;13.440;2023-06-22T03:59:24;13.23;;;12.00;;
2053;SDS011;1032;52.542;13.440;2023-06-22T04:01:52;13.63;;;12.30;;
2053;SDS011;1032;52.542;13.440;2023-06-22T04:04:19;14.60;;;13.30;;
2053;SDS011;1032;52.542;13.440;2023-06-22T04:06:46;13.30;;;12.20;;
2053;SDS011;1032;52.542;13.440;2023-06-22T04:09:13;14.60;;;13.10;;
2053;SDS011;1032;52.542;13.440;2023-06-22T04:11:39;13.93;;;12.73;;
2053;SDS011;1032;52.542;13.440;2023-06-22T04:14:06;13.57;;;12.30;;
2053;SDS011;1032;52.542;13.440;2023-06-22T04:16:32;13.57;;;12.37;;
2053;SDS011;1032;52.542;13.440;2023-06-22T04:19:00;11.80;;;10.80;;
2053;SDS011;1032;52.542;13.440;2023-06-22T04:21:27;12.90;;;11.67;;
2053;SDS011;1032;52.542;13.440;2023-06-22T04:23:53;10.63;;;9.63;;
2053;SDS011;1032;52.542;13.440;2023-06-22T04:26:20;11.60;;;10.37;;
2053;SDS011;1032;52.542;13.440;2023-06-22T04:28:47;10.60;;;9.57;;
2053;SDS011;1032;52.542;13.440;2023-06-22T04:31:16;12.50;;;9.67;;
2053;SDS011;1032;52.542;13.440;2023-06-22T04:33:43;10.30;;;9.30;;
2053;SDS011;1032;52.542;13.440;2023-06-22T04:36:12;10.60;;;9.60;;
2053;SDS011;1032;52.542;13.440;2023-06-22T04:38:39;10.53;;;9.53;;
2053;SDS011;1032;52.542;13.440;2023-06-22T04:41:07;10.93;;;9.83;;
2053;SDS011;1032;52.542;13.440;2023-06-22T04:43:35;9.97;;;8.97;;
2053;SDS011;1032;52.542;13.440;2023-06-22T04:46:02;11.37;;;9.23;;
2053;SDS011;1032;52.542;13.440;2023-06-22T04:48:29;12.87;;;8.40;;
2053;SDS011;1032;52.542;13.440;2023-06-22T04:50:57;8.47;;;7.63;;
2053;SDS011;1032;52.542;13.440;2023-06-22T04:53:31;9.97;;;8.03;;
2053;SDS011;1032;52.542;13.440;2023-06-22T04:55:57;13.30;;;6.80;;
2053;SDS011;1032;52.542;13.440;2023-06-22T04:58:24;10.10;;;5.80;;
2053;SDS011;1032;52.542;13.440;2023-06-22T05:00:53;6.60;;;5.93;;
2053;SDS011;1032;52.542;13.440;2023-06-22T05:03:22;5.57;;;4.93;;
2053;SDS011;1032;52.542;13.440;2023-06-22T05:05:51;6.57;;;5.97;;
2053;SDS011;1032;52.542;13.440;2023-06-22T05:08:17;7.80;;;5.13;;
2053;SDS011;1032;52.542;13.440;2023-06-22T05:10:45;6.23;;;5.63;;
2053;SDS011;1032;52.542;13.440;2023-06-22T05:13:12;6.40;;;5.80;;
2053;SDS011;1032;52.542;13.440;2023-06-22T05:15:39;5.87;;;5.23;;
2053;SDS011;1032;52.542;13.440;2023-06-22T05:18:05;5.77;;;5.13;;
2053;SDS011;1032;52.542;13.440;2023-06-22T05:20:32;6.77;;;5.23;;
2053;SDS011;1032;52.542;13.440;2023-06-22T05:23:01;6.57;;;5.90;;
2053;SDS011;1032;52.542;13.440;2023-06-22T05:25:27;8.77;;;5.73;;
2053;SDS011;1032;52.542;13.440;2023-06-22T05:27:58;6.40;;;5.57;;
2053;SDS011;1032;52.542;13.440;2023-06-22T05:30:25;6.60;;;5.00;;
2053;SDS011;1032;52.542;13.440;2023-06-22T05:32:53;6.17;;;5.50;;
2053;SDS011;1032;52.542;13.440;2023-06-22T05:35:20;7.30;;;5.50;;
2053;SDS011;1032;52.542;13.440;2023-06-22T05:37:46;7.50;;;4.97;;
2053;SDS011;1032;52.542;13.440;2023-06-22T05:40:14;5.80;;;5.20;;
2053;SDS011;1032;52.542;13.440;2023-06-22T05:42:40;5.73;;;5.23;;
2053;SDS011;1032;52.542;13.440;2023-06-22T05:45:09;11.30;;;6.43;;
2053;SDS011;1032;52.542;13.440;2023-06-22T05:47:35;9.30;;;5.93;;
2053;SDS011;1032;52.542;13.440;2023-06-22T05:50:02;8.73;;;6.27;;
2053;SDS011;1032;52.542;13.440;2023-06-22T05:52:31;9.30;;;5.63;;
2053;SDS011;1032;52.542;13.440;2023-06-22T05:54:58;5.53;;;5.03;;
2053;SDS011;1032;52.542;13.440;2023-06-22T05:57:25;10.03;;;5.70;;
2053;SDS011;1032;52.542;13.440;2023-06-22T05:59:54;5.47;;;4.97;;
2053;SDS011;1032;52.542;13.440;2023-06-22T06:02:22;6.67;;;5.63;;
2053;SDS011;1032;52.542;13.440;2023-06-22T06:04:50;8.87;;;6.63;;
2053;SDS011;1032;52.542;13.440;2023-06-22T06:07:17;6.80;;;5.70;;
2053;SDS011;1032;52.542;13.440;2023-06-22T06:09:44;10.47;;;5.70;;
2053;SDS011;1032;52.542;13.440;2023-06-22T06:12:11;6.30;;;5.70;;
2053;SDS011;1032;52.542;13.440;2023-06-22T06:14:38;6.33;;;5.70;;
2053;SDS011;1032;52.542;13.440;2023-06-22T06:17:07;6.20;;;5.30;;
2053;SDS011;1032;52.542;13.440;2023-06-22T06:19:35;10.10;;;5.83;;
2053;SDS011;1032;52.542;13.440;2023-06-22T06:22:03;6.50;;;5.90;;
2053;SDS011;1032;52.542;13.440;2023-06-22T06:24:30;7.67;;;5.20;;
2053;SDS011;1032;52.542;13.440;2023-06-22T06:26:56;6.50;;;5.10;;
2053;SDS011;1032;52.542;13.440;2023-06-22T06:29:23;9.73;;;5.20;;
2053;SDS011;1032;52.542;13.440;2023-06-22T06:31:49;9.53;;;4.90;;
2053;SDS011;1032;52.542;13.440;2023-06-22T06:34:16;5.73;;;4.93;;
2053;SDS011;1032;52.542;13.440;2023-06-22T06:36:44;8.53;;;4.43;;
2053;SDS011;1032;52.542;13.440;2023-06-22T06:39:11;6.50;;;4.30;;
2053;SDS011;1032;52.542;13.440;2023-06-22T06:41:37;4.67;;;4.20;;
2053;SDS011;1032;52.542;13.440;2023-06-22T06:44:13;6.80;;;3.90;;
2053;SDS011;1032;52.542;13.440;2023-06-22T06:46:40;12.63;;;4.80;;
2053;SDS011;1032;52.542;13.440;2023-06-22T06:49:07;6.43;;;4.40;;
2053;SDS011;1032;52.542;13.440;2023-06-22T06:51:33;6.43;;;5.40;;
2053;SDS011;1032;52.542;13.440;2023-06-22T06:54:02;9.53;;;4.77;;
2053;SDS011;1032;52.542;13.440;2023-06-22T06:56:29;5.00;;;3.90;;
2053;SDS011;1032;52.542;13.440;2023-06-22T06:58:58;6.37;;;4.17;;
2053;SDS011;1032;52.542;13.440;2023-06-22T07:01:24;8.97;;;4.00;;
2053;SDS011;1032;52.542;13.440;2023-06-22T07:03:51;5.90;;;4.30;;
2053;SDS011;1032;52.542;13.440;2023-06-22T07:06:18;4.03;;;3.50;;
2053;SDS011;1032;52.542;13.440;2023-06-22T07:08:45;7.30;;;3.50;;
2053;SDS011;1032;52.542;13.440;2023-06-22T07:11:13;3.87;;;3.37;;
2053;SDS011;1032;52.542;13.440;2023-06-22T07:13:39;7.17;;;4.10;;
2053;SDS011;1032;52.542;13.440;2023-06-22T07:16:06;9.30;;;4.20;;
2053;SDS011;1032;52.542;13.440;2023-06-22T07:18:32;3.93;;;3.40;;
2053;SDS011;1032;52.542;13.440;2023-06-22T07:20:59;6.50;;;3.93;;
2053;SDS011;1032;52.542;13.440;2023-06-22T07:23:26;6.90;;;3.93;;
2053;SDS011;1032;52.542;13.440;2023-06-22T07:25:52;9.60;;;4.37;;
2053;SDS011;1032;52.542;13.440;2023-06-22T07:28:20;4.90;;;3.63;;
2053;SDS011;1032;52.542;13.440;2023-06-22T07:30:47;4.33;;;3.87;;
2053;SDS011;1032;52.542;13.440;2023-06-22T07:33:13;4.77;;;3.70;;
2053;SDS011;1032;52.542;13.440;2023-06-22T07:35:40;6.00;;;3.80;;
2053;SDS011;1032;52.542;13.440;2023-06-22T07:38:07;6.20;;;3.20;;
2053;SDS011;1032;52.542;13.440;2023-06-22T07:40:34;5.80;;;3.80;;
2053;SDS011;1032;52.542;13.440;2023-06-22T07:43:01;4.90;;;3.40;;
2053;SDS011;1032;52.542;13.440;2023-06-22T07:45:29;4.37;;;3.50;;
2053;SDS011;1032;52.542;13.440;2023-06-22T07:47:58;4.63;;;2.80;;
2053;SDS011;1032;52.542;13.440;2023-06-22T07:50:25;6.03;;;3.83;;
2053;SDS011;1032;52.542;13.440;2023-06-22T07:52:51;4.47;;;3.40;;
2053;SDS011;1032;52.542;13.440;2023-06-22T07:55:18;6.33;;;3.70;;
2053;SDS011;1032;52.542;13.440;2023-06-22T07:57:46;8.70;;;3.60;;
2053;SDS011;1032;52.542;13.440;2023-06-22T08:00:17;5.90;;;3.60;;
2053;SDS011;1032;52.542;13.440;2023-06-22T08:02:45;4.10;;;3.27;;
2053;SDS011;1032;52.542;13.440;2023-06-22T08:05:13;7.37;;;4.03;;
2053;SDS011;1032;52.542;13.440;2023-06-22T08:07:40;5.23;;;3.73;;
2053;SDS011;1032;52.542;13.440;2023-06-22T08:10:08;5.10;;;3.00;;
2053;SDS011;1032;52.542;13.440;2023-06-22T08:12:36;5.80;;;3.17;;
2053;SDS011;1032;52.542;13.440;2023-06-22T08:15:03;5.43;;;3.30;;
2053;SDS011;1032;52.542;13.440;2023-06-22T08:17:32;6.70;;;3.83;;
2053;SDS011;1032;52.542;13.440;2023-06-22T08:20:00;4.90;;;3.40;;
2053;SDS011;1032;52.542;13.440;2023-06-22T08:22:30;5.37;;;3.13;;
2053;SDS011;1032;52.542;13.440;2023-06-22T08:24:58;5.60;;;3.20;;
2053;SDS011;1032;52.542;13.440;2023-06-22T08:27:25;5.03;;;3.60;;
2053;SDS011;1032;52.542;13.440;2023-06-22T08:29:53;4.10;;;2.97;;
2053;SDS011;1032;52.542;13.440;2023-06-22T08:32:23;4.10;;;3.40;;
2053;SDS011;1032;52.542;13.440;2023-06-22T08:34:51;3.17;;;2.80;;
2053;SDS011;1032;52.542;13.440;2023-06-22T08:37:19;5.67;;;3.77;;
2053;SDS011;1032;52.542;13.440;2023-06-22T08:39:48;3.53;;;3.23;;
2053;SDS011;1032;52.542;13.440;2023-06-22T08:42:15;3.77;;;3.43;;
2053;SDS011;1032;52.542;13.440;2023-06-22T08:44:42;5.07;;;3.60;;
2053;SDS011;1032;52.542;13.440;2023-06-22T08:47:08;7.57;;;3.40;;
2053;SDS011;1032;52.542;13.440;2023-06-22T08:49:35;3.87;;;3.30;;
2053;SDS011;1032;52.542;13.440;2023-06-22T08:52:01;3.87;;;3.57;;
2053;SDS011;1032;52.542;13.440;2023-06-22T08:54:29;6.90;;;3.40;;
2053;SDS011;1032;52.542;13.440;2023-06-22T08:56:58;5.67;;;3.73;;
2053;SDS011;1032;52.542;13.440;2023-06-22T08:59:24;4.40;;;3.67;;
2053;SDS011;1032;52.542;13.440;2023-06-22T09:01:51;4.63;;;3.77;;
2053;SDS011;1032;52.542;13.440;2023-06-22T09:04:17;8.43;;;3.80;;
2053;SDS011;1032;52.542;13.440;2023-06-22T09:06:47;5.27;;;4.40;;
2053;SDS011;1032;52.542;13.440;2023-06-22T09:09:15;4.10;;;3.30;;
2053;SDS011;1032;52.542;13.440;2023-06-22T09:11:43;5.27;;;3.47;;
2053;SDS011;1032;52.542;13.440;2023-06-22T09:14:10;4.60;;;3.87;;
2053;SDS011;1032;52.542;13.440;2023-06-22T09:16:37;4.03;;;3.70;;
2053;SDS011;1032;52.542;13.440;2023-06-22T09:19:04;4.00;;;3.60;;
2053;SDS011;1032;52.542;13.440;2023-06-22T09:21:30;3.67;;;3.30;;
2053;SDS011;1032;52.542;13.440;2023-06-22T09:23:57;4.30;;;3.37;;
2053;SDS011;1032;52.542;13.440;2023-06-22T09:26:24;4.00;;;3.70;;
2053;SDS011;1032;52.542;13.440;2023-06-22T09:28:51;4.53;;;3.20;;
2053;SDS011;1032;52.542;13.440;2023-06-22T09:31:18;3.43;;;3.13;;
2053;SDS011;1032;52.542;13.440;2023-06-22T09:33:50;6.27;;;3.37;;
2053;SDS011;1032;52.542;13.440;2023-06-22T09:36:17;3.70;;;3.30;;
2053;SDS011;1032;52.542;13.440;2023-06-22T09:38:43;4.23;;;3.50;;
2053;SDS011;1032;52.542;13.440;2023-06-22T09:41:10;5.50;;;3.60;;
2053;SDS011;1032;52.542;13.440;2023-06-22T09:43:37;4.00;;;2.97;;
2053;SDS011;1032;52.542;13.440;2023-06-22T09:46:05;3.50;;;3.20;;
2053;SDS011;1032;52.542;13.440;2023-06-22T09:48:32;3.17;;;2.87;;
2053;SDS011;1032;52.542;13.440;2023-06-22T09:50:58;4.67;;;3.80;;
2053;SDS011;1032;52.542;13.440;2023-06-22T09:53:25;6.00;;;4.00;;
2053;SDS011;1032;52.542;13.440;2023-06-22T09:55:52;6.77;;;5.13;;
2053;SDS011;1032;52.542;13.440;2023-06-22T09:58:18;5.80;;;4.20;;
2053;SDS011;1032;52.542;13.440;2023-06-22T10:00:45;5.30;;;4.00;;
2053;SDS011;1032;52.542;13.440;2023-06-22T10:03:13;5.60;;;3.97;;
2053;SDS011;1032;52.542;13.440;2023-06-22T10:05:40;4.20;;;3.80;;
2053;SDS011;1032;52.542;13.440;2023-06-22T10:08:06;4.87;;;3.40;;
2053;SDS011;1032;52.542;13.440;2023-06-22T10:10:34;3.93;;;3.53;;
2053;SDS011;1032;52.542;13.440;2023-06-22T10:13:02;5.40;;;3.07;;
2053;SDS011;1032;52.542;13.440;2023-06-22T10:15:36;4.67;;;3.57;;
2053;SDS011;1032;52.542;13.440;2023-06-22T10:18:03;3.87;;;3.47;;
2053;SDS011;1032;52.542;13.440;2023-06-22T10:20:31;4.60;;;3.80;;
2053;SDS011;1032;52.542;13.440;2023-06-22T10:22:58;9.60;;;6.10;;
2053;SDS011;1032;52.542;13.440;2023-06-22T10:25:26;5.17;;;4.30;;
2053;SDS011;1032;52.542;13.440;2023-06-22T10:27:53;8.03;;;4.30;;
2053;SDS011;1032;52.542;13.440;2023-06-22T10:30:20;6.40;;;4.43;;
2053;SDS011;1032;52.542;13.440;2023-06-22T10:32:47;5.20;;;3.67;;
2053;SDS011;1032;52.542;13.440;2023-06-22T10:35:13;4.23;;;3.57;;
2053;SDS011;1032;52.542;13.440;2023-06-22T10:37:42;7.33;;;4.30;;
2053;SDS011;1032;52.542;13.440;2023-06-22T10:40:10;4.30;;;3.53;;
2053;SDS011;1032;52.542;13.440;2023-06-22T10:42:38;4.40;;;4.00;;
2053;SDS011;1032;52.542;13.440;2023-06-22T10:45:05;4.30;;;3.90;;
2053;SDS011;1032;52.542;13.440;2023-06-22T10:47:32;5.03;;;4.40;;
2053;SDS011;1032;52.542;13.440;2023-06-22T10:49:59;5.43;;;3.77;;
2053;SDS011;1032;52.542;13.440;2023-06-22T10:52:26;5.07;;;4.30;;
2053;SDS011;1032;52.542;13.440;2023-06-22T10:54:54;6.27;;;3.80;;
2053;SDS011;1032;52.542;13.440;2023-06-22T10:57:21;4.03;;;3.57;;
2053;SDS011;1032;52.542;13.440;2023-06-22T10:59:48;4.27;;;3.80;;
2053;SDS011;1032;52.542;13.440;2023-06-22T11:02:14;5.77;;;3.90;;
2053;SDS011;1032;52.542;13.440;2023-06-22T11:04:41;4.10;;;3.50;;
2053;SDS011;1032;52.542;13.440;2023-06-22T11:07:08;5.43;;;3.70;;
2053;SDS011;1032;52.542;13.440;2023-06-22T11:09:35;8.40;;;4.43;;
2053;SDS011;1032;52.542;13.440;2023-06-22T11:12:05;4.83;;;3.87;;
2053;SDS011;1032;52.542;13.440;2023-06-22T11:14:32;5.63;;;4.07;;
2053;SDS011;1032;52.542;13.440;2023-06-22T11:16:59;4.20;;;3.80;;
2053;SDS011;1032;52.542;13.440;2023-06-22T11:19:26;4.40;;;4.00;;
2053;SDS011;1032;52.542;13.440;2023-06-22T11:21:52;4.63;;;4.23;;
2053;SDS011;1032;52.542;13.440;2023-06-22T11:24:19;5.13;;;4.20;;
2053;SDS011;1032;52.542;13.440;2023-06-22T11:26:45;6.77;;;4.60;;
2053;SDS011;1032;52.542;13.440;2023-06-22T11:29:13;5.00;;;4.50;;
2053;SDS011;1032;52.542;13.440;2023-06-22T11:31:40;4.03;;;3.73;;
2053;SDS011;1032;52.542;13.440;2023-06-22T11:34:08;4.80;;;3.50;;
2053;SDS011;1032;52.542;13.440;2023-06-22T11:36:35;6.30;;;3.77;;
2053;SDS011;1032;52.542;13.440;2023-06-22T11:39:01;4.00;;;3.60;;
2053;SDS011;1032;52.542;13.440;2023-06-22T11:41:30;4.30;;;3.90;;
2053;SDS011;1032;52.542;13.440;2023-06-22T11:43:56;7.37;;;4.07;;
2053;SDS011;1032;52.542;13.440;2023-06-22T11:46:24;4.00;;;3.50;;
2053;SDS011;1032;52.542;13.440;2023-06-22T11:48:51;4.90;;;4.50;;
2053;SDS011;1032;52.542;13.440;2023-06-22T11:51:17;4.80;;;4.40;;
2053;SDS011;1032;52.542;13.440;2023-06-22T11:53:44;6.70;;;6.00;;
2053;SDS011;1032;52.542;13.440;2023-06-22T11:56:10;5.87;;;4.00;;
2053;SDS011;1032;52.542;13.440;2023-06-22T11:58:37;4.57;;;3.90;;
2053;SDS011;1032;52.542;13.440;2023-06-22T12:01:04;9.57;;;4.20;;
2053;SDS011;1032;52.542;13.440;2023-06-22T12:03:32;4.57;;;4.17;;
2053;SDS011;1032;52.542;13.440;2023-06-22T12:05:59;5.30;;;4.80;;
2053;SDS011;1032;52.542;13.440;2023-06-22T12:08:26;6.50;;;3.63;;
2053;SDS011;1032;52.542;13.440;2023-06-22T12:10:52;5.07;;;4.20;;
2053;SDS011;1032;52.542;13.440;2023-06-22T12:13:19;4.50;;;3.53;;
2053;SDS011;1032;52.542;13.440;2023-06-22T12:15:46;4.40;;;3.50;;
2053;SDS011;1032;52.542;13.440;2023-06-22T12:18:13;6.33;;;4.10;;
2053;SDS011;1032;52.542;13.440;2023-06-22T12:20:41;5.23;;;4.50;;
2053;SDS011;1032;52.542;13.440;2023-06-22T12:23:07;4.60;;;4.20;;
2053;SDS011;1032;52.542;13.440;2023-06-22T12:25:34;5.70;;;4.30;;
2053;SDS011;1032;52.542;13.440;2023-06-22T12:28:01;5.80;;;4.60;;
2053;SDS011;1032;52.542;13.440;2023-06-22T12:30:27;4.97;;;4.47;;
2053;SDS011;1032;52.542;13.440;2023-06-22T12:32:54;6.70;;;3.77;;
2053;SDS011;1032;52.542;13.440;2023-06-22T12:35:21;4.37;;;3.97;;
2053;SDS011;1032;52.542;13.440;2023-06-22T12:37:48;7.13;;;4.20;;
2053;SDS011;1032;52.542;13.440;2023-06-22T12:40:15;5.70;;;4.73;;
2053;SDS011;1032;52.542;13.440;2023-06-22T12:42:42;6.07;;;4.37;;
2053;SDS011;1032;52.542;13.440;2023-06-22T12:45:09;4.60;;;4.20;;
2053;SDS011;1032;52.542;13.440;2023-06-22T12:47:36;6.77;;;5.13;;
2053;SDS011;1032;52.542;13.440;2023-06-22T12:50:02;6.07;;;4.63;;
2053;SDS011;1032;52.542;13.440;2023-06-22T12:52:30;5.73;;;3.90;;
2053;SDS011;1032;52.542;13.440;2023-06-22T12:54:58;5.33;;;4.33;;
2053;SDS011;1032;52.542;13.440;2023-06-22T12:57:25;5.57;;;4.73;;
2053;SDS011;1032;52.542;13.440;2023-06-22T12:59:52;5.30;;;4.37;;
2053;SDS011;1032;52.542;13.440;2023-06-22T13:02:18;8.80;;;4.73;;
2053;SDS011;1032;52.542;13.440;2023-06-22T13:04:45;5.27;;;4.87;;
2053;SDS011;1032;52.542;13.440;2023-06-22T13:07:12;5.47;;;4.97;;
2053;SDS011;1032;52.542;13.440;2023-06-22T13:09:38;5.70;;;5.03;;
2053;SDS011;1032;52.542;13.440;2023-06-22T13:12:07;5.97;;;5.20;;
2053;SDS011;1032;52.542;13.440;2023-06-22T13:14:34;5.37;;;4.87;;
2053;SDS011;1032;52.542;13.440;2023-06-22T13:17:01;7.03;;;5.20;;
2053;SDS011;1032;52.542;13.440;2023-06-22T13:19:27;5.50;;;4.83;;
2053;SDS011;1032;52.542;13.440;2023-06-22T13:21:57;7.10;;;4.97;;
2053;SDS011;1032;52.542;13.440;2023-06-22T13:24:24;5.77;;;4.10;;
2053;SDS011;1032;52.542;13.440;2023-06-22T13:26:50;6.20;;;4.97;;
2053;SDS011;1032;52.542;13.440;2023-06-22T13:29:18;8.37;;;4.43;;
2053;SDS011;1032;52.542;13.440;2023-06-22T13:31:45;5.03;;;4.53;;
2053;SDS011;1032;52.542;13.440;2023-06-22T13:34:12;4.47;;;4.07;;
2053;SDS011;1032;52.542;13.440;2023-06-22T13:36:38;4.60;;;4.20;;
2053;SDS011;1032;52.542;13.440;2023-06-22T13:39:05;8.20;;;4.87;;
2053;SDS011;1032;52.542;13.440;2023-06-22T13:41:32;6.77;;;4.53;;
2053;SDS011;1032;52.542;13.440;2023-06-22T13:43:59;4.80;;;4.30;;
2053;SDS011;1032;52.542;13.440;2023-06-22T13:46:27;5.03;;;4.57;;
2053;SDS011;1032;52.542;13.440;2023-06-22T13:48:54;5.07;;;4.67;;
2053;SDS011;1032;52.542;13.440;2023-06-22T13:51:21;6.23;;;4.57;;
2053;SDS011;1032;52.542;13.440;2023-06-22T13:53:47;5.13;;;4.63;;
2053;SDS011;1032;52.542;13.440;2023-06-22T13:56:14;7.70;;;5.30;;
2053;SDS011;1032;52.542;13.440;2023-06-22T13:58:41;4.37;;;4.03;;
2053;SDS011;1032;52.542;13.440;2023-06-22T14:01:08;5.97;;;5.37;;
2053;SDS011;1032;52.542;13.440;2023-06-22T14:03:36;5.13;;;4.63;;
2053;SDS011;1032;52.542;13.440;2023-06-22T14:06:03;4.97;;;4.57;;
2053;SDS011;1032;52.542;13.440;2023-06-22T14:08:30;5.97;;;4.80;;
2053;SDS011;1032;52.542;13.440;2023-06-22T14:10:57;5.20;;;4.70;;
2053;SDS011;1032;52.542;13.440;2023-06-22T14:13:23;5.57;;;5.03;;
2053;SDS011;1032;52.542;13.440;2023-06-22T14:15:50;6.43;;;4.77;;
2053;SDS011;1032;52.542;13.440;2023-06-22T14:18:17;5.30;;;4.77;;
2053;SDS011;1032;52.542;13.440;2023-06-22T14:20:45;5.30;;;4.90;;
2053;SDS011;1032;52.542;13.440;2023-06-22T14:23:12;5.70;;;5.20;;
2053;SDS011;1032;52.542;13.440;2023-06-22T14:25:40;5.00;;;4.60;;
2053;SDS011;1032;52.542;13.440;2023-06-22T14:28:06;5.83;;;5.30;;
2053;SDS011;1032;52.542;13.440;2023-06-22T14:30:33;6.00;;;5.10;;
2053;SDS011;1032;52.542;13.440;2023-06-22T14:33:00;5.10;;;4.70;;
2053;SDS011;1032;52.542;13.440;2023-06-22T14:35:26;5.80;;;5.40;;
2053;SDS011;1032;52.542;13.440;2023-06-22T14:37:54;5.50;;;5.00;;
2053;SDS011;1032;52.542;13.440;2023-06-22T14:40:21;6.23;;;5.00;;
2053;SDS011;1032;52.542;13.440;2023-06-22T14:42:47;5.27;;;4.77;;
2053;SDS011;1032;52.542;13.440;2023-06-22T14:45:14;5.20;;;4.57;;
2053;SDS011;1032;52.542;13.440;2023-06-22T14:47:41;6.40;;;5.60;;
2053;SDS011;1032;52.542;13.440;2023-06-22T14:50:08;4.90;;;4.50;;
2053;SDS011;1032;52.542;13.440;2023-06-22T14:52:35;5.43;;;4.43;;
2053;SDS011;1032;52.542;13.440;2023-06-22T14:55:03;5.80;;;4.80;;